Time;durP1;ratioP1;P1;durP2;ratioP2;P2;SDS_P1;SDS_P2;PMS_P1;PMS_P2;Temp;Humidity;BMP_temperature;BMP_pressure;BME280_temperature;BME280_humidity;BME280_pressure;Samples;Min_cycle;Max_cycle;Signal;HPM_P1;HPM_P2
2022/04/09 00:00:30;;;;;;;2.88;1.08;;;19.60;50.30;;;;;;5069507;28;20430;-68
2022/04/09 00:02:57;;;;;;;1.35;0.80;;;19.60;50.30;;;;;;5069440;28;20379;-69
2022/04/09 00:05:23;;;;;;;2.05;0.93;;;19.60;50.30;;;;;;5069094;28;20029;-69
2022/04/09 00:07:49;;;;;;;2.83;0.82;;;19.60;50.30;;;;;;5068832;28;20383;-69
2022/04/09 00:10:15;;;;;;;2.40;0.88;;;19.50;50.20;;;;;;5069272;28;21074;-68
2022/04/09 00:12:45;;;;;;;1.65;0.93;;;19.50;50.20;;;;;;5068902;28;20036;-69
2022/04/09 00:15:12;;;;;;;2.53;0.80;;;19.50;50.20;;;;;;5070085;28;20047;-69
2022/04/09 00:17:38;;;;;;;1.48;0.70;;;19.50;50.20;;;;;;5063834;28;20032;-69
2022/04/09 00:20:05;;;;;;;2.58;0.90;;;19.50;50.20;;;;;;5068075;28;20030;-68
2022/04/09 00:22:31;;;;;;;1.55;0.65;;;19.50;50.20;;;;;;5067269;28;20540;-69
2022/04/09 00:24:57;;;;;;;2.00;0.90;;;19.50;50.20;;;;;;5084996;28;20048;-69
2022/04/09 00:27:23;;;;;;;2.72;0.90;;;19.50;50.20;;;;;;5086039;28;20055;-68
2022/04/09 00:29:48;;;;;;;2.67;1.00;;;19.50;50.90;;;;;;5087094;28;20045;-68
2022/04/09 00:32:14;;;;;;;2.28;0.90;;;19.50;50.10;;;;;;5064636;28;20036;-69
2022/04/09 00:34:40;;;;;;;3.08;0.95;;;19.50;50.10;;;;;;5087993;28;20176;-69
2022/04/09 00:37:06;;;;;;;1.35;0.70;;;19.50;50.10;;;;;;5087324;28;20483;-68
2022/04/09 00:39:31;;;;;;;1.88;0.90;;;19.50;50.10;;;;;;5086578;28;20032;-68
2022/04/09 00:41:57;;;;;;;2.50;0.70;;;19.50;50.10;;;;;;5085945;28;20406;-69
2022/04/09 00:44:23;;;;;;;2.13;0.88;;;19.50;50.10;;;;;;5085358;28;20028;-69
2022/04/09 00:46:49;;;;;;;1.13;0.63;;;19.50;50.10;;;;;;5088364;28;20054;-69
2022/04/09 00:49:16;;;;;;;3.25;0.80;;;19.50;50.10;;;;;;5087023;28;20184;-69
2022/04/09 00:51:45;;;;;;;1.95;0.85;;;19.50;50.10;;;;;;5071126;28;20121;-68
2022/04/09 00:54:13;;;;;;;1.60;0.80;;;19.50;50.00;;;;;;5084552;28;20111;-69
2022/04/09 00:56:40;;;;;;;1.92;0.80;;;19.50;50.10;;;;;;5088993;28;20471;-69
2022/04/09 00:59:10;;;;;;;1.55;0.80;;;19.50;50.00;;;;;;5087571;28;20082;-69
2022/04/09 01:01:38;;;;;;;2.42;0.98;;;19.40;50.00;;;;;;5088680;28;20114;-69
2022/04/09 01:04:08;;;;;;;;;;;19.50;50.80;;;;;;5089410;28;20081;-69
2022/04/09 01:06:35;;;;;;;2.97;0.88;;;19.50;49.90;;;;;;5092979;28;19931;-69
2022/04/09 01:09:02;;;;;;;2.80;0.90;;;19.40;50.00;;;;;;5091465;28;20035;-68
2022/04/09 01:11:28;;;;;;;1.73;0.90;;;19.40;49.90;;;;;;5090458;28;20316;-69
2022/04/09 01:13:54;;;;;;;2.95;0.98;;;19.40;49.90;;;;;;5073810;28;20791;-69
2022/04/09 01:16:20;;;;;;;2.70;0.93;;;19.50;49.90;;;;;;5090827;28;20039;-68
2022/04/09 01:18:46;;;;;;;1.40;0.70;;;19.50;49.90;;;;;;5091103;28;20042;-68
2022/04/09 01:21:12;;;;;;;2.22;0.85;;;19.50;49.90;;;;;;5092208;28;20020;-69
2022/04/09 01:23:37;;;;;;;2.67;0.80;;;19.50;49.90;;;;;;5072936;28;20054;-70
2022/04/09 01:26:04;;;;;;;1.88;0.80;;;19.40;49.80;;;;;;5091689;28;20036;-70
2022/04/09 01:28:31;;;;;;;2.38;0.75;;;19.40;49.70;;;;;;5091620;28;20093;-69
2022/04/09 01:30:57;;;;;;;1.75;0.63;;;19.40;49.70;;;;;;5089357;28;20565;-69
2022/04/09 01:33:23;;;;;;;2.17;0.90;;;19.50;49.80;;;;;;5089395;28;20043;-70
2022/04/09 01:35:50;;;;;;;1.02;0.63;;;19.40;49.70;;;;;;5086223;28;20040;-70
2022/04/09 01:38:16;;;;;;;2.33;0.90;;;19.40;49.70;;;;;;5070967;28;20037;-69
2022/04/09 01:40:43;;;;;;;2.78;0.88;;;19.40;49.70;;;;;;5087033;28;20115;-69
2022/04/09 01:43:08;;;;;;;1.77;0.98;;;19.40;49.70;;;;;;5091592;28;20035;-69
2022/04/09 01:45:35;;;;;;;1.77;0.80;;;19.40;49.70;;;;;;5086701;28;20032;-69
2022/04/09 01:48:01;;;;;;;1.85;0.80;;;19.40;49.70;;;;;;5089592;28;20083;-69
2022/04/09 01:50:26;;;;;;;3.08;1.00;;;19.40;49.70;;;;;;5079037;28;20060;-69
2022/04/09 01:52:53;;;;;;;1.92;0.80;;;19.40;49.70;;;;;;5091637;28;20032;-69
2022/04/09 01:55:19;;;;;;;1.38;0.88;;;19.40;49.70;;;;;;5091134;28;20103;-69
2022/04/09 01:57:49;;;;;;;2.30;0.80;;;19.40;49.60;;;;;;5092001;28;20036;-69
2022/04/09 02:00:16;;;;;;;3.00;0.80;;;19.40;49.60;;;;;;5087754;28;20083;-69
2022/04/09 02:02:43;;;;;;;2.75;0.82;;;19.40;49.60;;;;;;5086897;28;20032;-70
2022/04/09 02:05:11;;;;;;;2.33;0.73;;;19.40;49.60;;;;;;5090919;28;20032;-69
2022/04/09 02:07:38;;;;;;;2.10;0.85;;;19.40;49.60;;;;;;5080552;28;20115;-68
2022/04/09 02:10:05;;;;;;;1.23;0.75;;;19.40;49.60;;;;;;5090498;28;20115;-69
2022/04/09 02:12:33;;;;;;;2.63;0.80;;;19.40;49.80;;;;;;5090748;28;20028;-70
2022/04/09 02:15:02;;;;;;;3.28;0.98;;;19.40;49.60;;;;;;5070996;28;20036;-69
2022/04/09 02:17:27;;;;;;;2.08;0.73;;;19.40;49.60;;;;;;5088395;28;20123;-69
2022/04/09 02:19:53;;;;;;;2.03;0.52;;;19.40;49.60;;;;;;5089112;28;20120;-69
2022/04/09 02:22:19;;;;;;;1.23;0.70;;;19.40;49.60;;;;;;5086896;28;20077;-70
2022/04/09 02:24:46;;;;;;;2.28;0.80;;;19.40;49.60;;;;;;5084890;28;20078;-69
2022/04/09 02:27:12;;;;;;;2.35;0.75;;;19.40;49.50;;;;;;5090532;28;20119;-70
2022/04/09 02:29:38;;;;;;;1.05;0.70;;;19.40;49.50;;;;;;5089006;28;20119;-69
2022/04/09 02:32:05;;;;;;;3.10;0.70;;;19.40;49.50;;;;;;5089147;28;20161;-69
2022/04/09 02:34:31;;;;;;;1.45;0.73;;;19.40;49.50;;;;;;5086368;28;20664;-69
2022/04/09 02:36:57;;;;;;;1.40;0.65;;;19.40;49.40;;;;;;5081598;28;20028;-69
2022/04/09 02:39:22;;;;;;;3.78;0.95;;;19.40;49.40;;;;;;5080790;28;20040;-69
2022/04/09 02:41:50;;;;;;;3.25;0.88;;;19.40;49.50;;;;;;5078683;28;20033;-69
2022/04/09 02:44:17;;;;;;;2.53;0.70;;;19.40;49.40;;;;;;5080012;28;20111;-69
2022/04/09 02:46:45;;;;;;;1.75;0.60;;;19.40;49.40;;;;;;5082810;28;20475;-69
2022/04/09 02:49:10;;;;;;;1.42;0.70;;;19.30;49.40;;;;;;5071926;28;20036;-69
2022/04/09 02:51:36;;;;;;;2.20;0.85;;;19.30;49.40;;;;;;5079377;28;20473;-70
2022/04/09 02:54:02;;;;;;;1.70;0.90;;;19.40;49.40;;;;;;5085808;28;20473;-69
2022/04/09 02:56:27;;;;;;;1.35;0.70;;;19.30;49.30;;;;;;5088211;28;20040;-69
2022/04/09 02:58:53;;;;;;;1.55;0.70;;;19.30;49.30;;;;;;5086014;28;20119;-69
2022/04/09 03:01:19;;;;;;;1.65;0.70;;;19.40;49.40;;;;;;5089849;28;20536;-70
2022/04/09 03:03:44;;;;;;;2.45;0.90;;;19.40;49.40;;;;;;5079836;28;20063;-69
2022/04/09 03:06:10;;;;;;;2.40;0.80;;;19.40;49.40;;;;;;5083797;28;20077;-69
2022/04/09 03:08:36;;;;;;;1.95;0.70;;;19.30;50.00;;;;;;5080422;28;20044;-68
2022/04/09 03:11:02;;;;;;;1.23;0.70;;;19.30;49.30;;;;;;5087002;28;20411;-69
2022/04/09 03:13:28;;;;;;;1.67;0.80;;;19.30;49.20;;;;;;5072125;28;20126;-69
2022/04/09 03:15:54;;;;;;;2.22;0.80;;;19.30;49.20;;;;;;5083324;28;20028;-70
2022/04/09 03:18:19;;;;;;;1.65;0.68;;;19.30;49.30;;;;;;5083602;28;20031;-69
2022/04/09 03:20:45;;;;;;;1.40;0.70;;;19.30;49.20;;;;;;5088845;28;20046;-69
2022/04/09 03:23:11;;;;;;;1.25;0.60;;;19.30;49.30;;;;;;5089062;28;20036;-70
2022/04/09 03:25:37;;;;;;;2.25;0.70;;;19.30;49.30;;;;;;5070046;28;20118;-70
2022/04/09 03:28:03;;;;;;;2.00;0.80;;;19.30;49.20;;;;;;5070257;28;20029;-69
2022/04/09 03:30:28;;;;;;;1.98;0.70;;;19.30;49.20;;;;;;5069305;28;20064;-69
2022/04/09 03:32:55;;;;;;;1.90;0.55;;;19.30;49.30;;;;;;5052110;28;20058;-69
2022/04/09 03:35:21;;;;;;;1.10;0.90;;;19.30;49.20;;;;;;5069104;28;20033;-69
2022/04/09 03:37:47;;;;;;;1.83;0.73;;;19.30;49.20;;;;;;5069501;28;20367;-69
2022/04/09 03:40:13;;;;;;;2.47;0.70;;;19.30;49.20;;;;;;5068732;28;20037;-68
2022/04/09 03:42:39;;;;;;;1.35;0.63;;;19.30;49.20;;;;;;5070025;28;20060;-69
2022/04/09 03:45:05;;;;;;;1.80;0.73;;;19.30;49.20;;;;;;5069909;28;20052;-70
2022/04/09 03:47:35;;;;;;;2.15;0.70;;;19.30;49.20;;;;;;5066879;28;20040;-69
2022/04/09 03:50:01;;;;;;;1.55;0.60;;;19.30;49.20;;;;;;5068271;28;20119;-69
2022/04/09 03:52:27;;;;;;;2.03;0.70;;;19.30;49.20;;;;;;5069485;28;20112;-70
2022/04/09 03:54:53;;;;;;;0.90;0.70;;;19.30;49.20;;;;;;5069580;28;20115;-69
2022/04/09 03:57:19;;;;;;;2.40;0.70;;;19.30;49.20;;;;;;5069052;28;20039;-69
2022/04/09 03:59:45;;;;;;;2.58;0.60;;;19.30;49.20;;;;;;5068742;28;20641;-69
2022/04/09 04:02:10;;;;;;;2.38;0.75;;;19.30;49.20;;;;;;5068685;28;20030;-69
2022/04/09 04:04:37;;;;;;;1.13;0.60;;;19.30;49.20;;;;;;5069147;28;20036;-69
2022/04/09 04:07:04;;;;;;;2.58;0.70;;;19.30;49.20;;;;;;5069230;28;20067;-69
2022/04/09 04:09:30;;;;;;;2.10;0.70;;;19.30;49.20;;;;;;5069467;28;20033;-69
2022/04/09 04:11:56;;;;;;;1.98;0.68;;;19.30;49.20;;;;;;5069695;28;20439;-69
2022/04/09 04:14:21;;;;;;;2.72;0.80;;;19.20;49.20;;;;;;5072871;28;20032;-69
2022/04/09 04:16:47;;;;;;;1.55;0.70;;;19.30;49.20;;;;;;5068979;28;20037;-69
2022/04/09 04:19:13;;;;;;;2.20;0.80;;;19.30;49.20;;;;;;5068308;28;20025;-69
2022/04/09 04:21:39;;;;;;;4.75;0.88;;;19.20;49.20;;;;;;5069212;28;20021;-69
2022/04/09 04:24:05;;;;;;;1.92;0.60;;;19.30;49.20;;;;;;5074526;28;20040;-69
2022/04/09 04:26:31;;;;;;;1.35;0.70;;;19.20;49.10;;;;;;5088541;28;20489;-70
2022/04/09 04:28:57;;;;;;;1.48;0.70;;;19.30;49.10;;;;;;5088184;28;20040;-70
2022/04/09 04:31:22;;;;;;;0.90;0.63;;;19.30;49.10;;;;;;5088374;28;20102;-68
2022/04/09 04:33:48;;;;;;;1.67;0.70;;;19.30;49.20;;;;;;5087440;28;20039;-69
2022/04/09 04:36:14;;;;;;;2.08;0.70;;;19.20;49.00;;;;;;5088977;28;20157;-70
2022/04/09 04:38:40;;;;;;;1.35;0.50;;;19.30;49.10;;;;;;5089675;28;20074;-69
2022/04/09 04:41:06;;;;;;;2.08;0.75;;;19.30;49.10;;;;;;5093123;28;20028;-69
2022/04/09 04:43:32;;;;;;;1.10;0.55;;;19.30;49.00;;;;;;5089748;28;21581;-69
2022/04/09 04:45:58;;;;;;;1.35;0.77;;;19.30;49.00;;;;;;5089015;28;20056;-69
2022/04/09 04:48:24;;;;;;;1.30;0.63;;;19.30;49.00;;;;;;5091066;28;20047;-69
2022/04/09 04:50:50;;;;;;;1.30;0.43;;;19.30;49.00;;;;;;5070971;28;20044;-69
2022/04/09 04:53:16;;;;;;;1.58;0.70;;;19.30;49.00;;;;;;5092458;28;20047;-69
2022/04/09 04:55:42;;;;;;;1.58;0.85;;;19.30;49.00;;;;;;5091621;28;20043;-69
2022/04/09 04:58:07;;;;;;;0.80;0.50;;;19.30;49.00;;;;;;5089644;28;20052;-70
2022/04/09 05:00:33;;;;;;;2.10;0.60;;;19.20;48.90;;;;;;5092958;28;20044;-70
2022/04/09 05:02:59;;;;;;;2.10;0.70;;;19.30;49.00;;;;;;5092009;28;20063;-69
2022/04/09 05:05:25;;;;;;;1.33;0.70;;;19.30;48.90;;;;;;5074067;28;20516;-69
2022/04/09 05:07:52;;;;;;;2.20;0.80;;;19.30;48.90;;;;;;5086509;28;20028;-69
2022/04/09 05:10:23;;;;;;;2.42;0.68;;;19.30;48.90;;;;;;5086349;28;20039;-70
2022/04/09 05:12:51;;;;;;;2.05;0.70;;;19.30;48.90;;;;;;5093081;28;20157;-69
2022/04/09 05:15:17;;;;;;;;;;;19.30;48.80;;;;;;5092056;28;20107;-69
2022/04/09 05:17:44;;;;;;;1.60;0.60;;;19.30;48.90;;;;;;5067956;28;20062;-69
2022/04/09 05:20:12;;;;;;;2.50;0.60;;;19.30;49.00;;;;;;5081161;28;20115;-67
2022/04/09 05:22:43;;;;;;;1.70;0.52;;;19.30;49.00;;;;;;5087512;28;20036;-68
2022/04/09 05:25:10;;;;;;;1.48;0.65;;;19.30;48.90;;;;;;5086561;28;20105;-70
2022/04/09 05:27:37;;;;;;;2.72;0.60;;;19.30;49.00;;;;;;5083720;28;20029;-69
2022/04/09 05:30:04;;;;;;;2.38;0.88;;;19.30;49.10;;;;;;5081518;28;20032;-68
2022/04/09 05:32:30;;;;;;;1.70;0.60;;;19.30;49.20;;;;;;5083237;28;20124;-68
2022/04/09 05:34:56;;;;;;;2.25;0.60;;;19.30;49.20;;;;;;5085697;28;20237;-68
2022/04/09 05:37:22;;;;;;;0.98;0.52;;;19.30;49.30;;;;;;5087113;28;20535;-69
2022/04/09 05:39:47;;;;;;;1.92;0.47;;;19.30;49.30;;;;;;5086246;28;20036;-68
2022/04/09 05:42:13;;;;;;;1.33;0.70;;;19.30;49.40;;;;;;5083351;28;20158;-69
2022/04/09 05:44:39;;;;;;;1.73;0.73;;;19.40;49.40;;;;;;5082443;28;20028;-68
2022/04/09 05:47:05;;;;;;;2.17;0.52;;;19.40;49.40;;;;;;5081512;28;20119;-69
2022/04/09 05:49:31;;;;;;;2.67;0.75;;;19.30;49.40;;;;;;5083259;28;20027;-69
2022/04/09 05:51:57;;;;;;;2.45;0.70;;;19.40;49.50;;;;;;5081527;28;20024;-68
2022/04/09 05:54:24;;;;;;;1.40;0.68;;;19.40;49.50;;;;;;5078583;28;20037;-69
2022/04/09 05:56:50;;;;;;;2.83;0.75;;;19.40;49.50;;;;;;5081645;28;20020;-69
2022/04/09 05:59:16;;;;;;;1.67;0.70;;;19.40;49.50;;;;;;5082328;28;20045;-70
2022/04/09 06:01:42;;;;;;;2.95;0.60;;;19.40;49.50;;;;;;5069683;28;20043;-69
2022/04/09 06:04:08;;;;;;;1.27;0.60;;;19.40;49.40;;;;;;5078409;28;20024;-69
2022/04/09 06:06:34;;;;;;;1.17;0.50;;;19.40;49.50;;;;;;5084814;28;20039;-68
2022/04/09 06:09:00;;;;;;;1.63;0.70;;;19.40;49.50;;;;;;5082866;28;20036;-69
2022/04/09 06:11:26;;;;;;;2.05;0.70;;;19.40;49.60;;;;;;5073142;28;20032;-69
2022/04/09 06:13:51;;;;;;;2.97;0.70;;;19.40;49.40;;;;;;5079882;28;20037;-70
2022/04/09 06:16:17;;;;;;;3.95;0.60;;;19.40;49.40;;;;;;5086257;28;20040;-70
2022/04/09 06:18:43;;;;;;;2.22;0.63;;;19.40;49.50;;;;;;5080926;28;20036;-71
2022/04/09 06:21:09;;;;;;;4.80;0.60;;;19.40;49.50;;;;;;5080134;28;20036;-69
2022/04/09 06:23:36;;;;;;;3.78;0.65;;;19.40;49.60;;;;;;5085835;28;20047;-69
2022/04/09 06:26:02;;;;;;;1.70;0.65;;;19.40;49.60;;;;;;5091301;28;20056;-68
2022/04/09 06:28:28;;;;;;;5.38;0.85;;;19.40;49.60;;;;;;5077420;28;20078;-71
2022/04/09 06:30:54;;;;;;;2.35;0.63;;;19.40;49.50;;;;;;5085550;28;20048;-69
2022/04/09 06:33:23;;;;;;;2.70;0.57;;;19.40;49.50;;;;;;5091331;28;20035;-69
2022/04/09 06:35:49;;;;;;;1.67;0.60;;;19.40;49.60;;;;;;5090650;28;20067;-69
2022/04/09 06:38:14;;;;;;;2.60;0.63;;;19.40;49.70;;;;;;5086381;28;20079;-68
2022/04/09 06:40:40;;;;;;;1.08;0.65;;;19.40;49.70;;;;;;5071275;28;20080;-69
2022/04/09 06:43:06;;;;;;;2.70;0.60;;;19.40;49.70;;;;;;5090681;28;20039;-68
2022/04/09 06:45:33;;;;;;;6.35;0.82;;;19.50;49.80;;;;;;5091963;28;20024;-67
2022/04/09 06:47:59;;;;;;;2.90;0.60;;;19.50;49.90;;;;;;5072655;28;20075;-70
2022/04/09 06:50:25;;;;;;;4.05;0.88;;;19.50;49.90;;;;;;5088645;28;20147;-70
2022/04/09 06:52:51;;;;;;;3.88;0.77;;;19.50;50.00;;;;;;5088299;28;20114;-67
2022/04/09 06:55:17;;;;;;;3.58;0.70;;;19.60;50.20;;;;;;5090904;28;20044;-69
2022/04/09 06:57:44;;;;;;;4.80;0.80;;;19.60;50.30;;;;;;5089723;28;20059;-68
2022/04/09 07:00:16;;;;;;;2.15;0.55;;;19.70;50.50;;;;;;5091047;28;20055;-68
2022/04/09 07:02:42;;;;;;;2.45;0.70;;;19.70;50.60;;;;;;5090743;28;20127;-68
2022/04/09 07:05:08;;;;;;;1.10;0.50;;;19.80;50.70;;;;;;5075647;28;20127;-68
2022/04/09 07:07:34;;;;;;;2.33;0.63;;;19.80;50.70;;;;;;5077959;28;20025;-68
2022/04/09 07:10:05;;;;;;;5.00;0.70;;;19.90;50.80;;;;;;5087294;28;20438;-69
2022/04/09 07:12:31;;;;;;;13.27;1.40;;;19.90;50.70;;;;;;5088410;28;20040;-69
2022/04/09 07:14:57;;;;;;;2.10;0.70;;;20.00;50.80;;;;;;5098986;28;20040;-69
2022/04/09 07:17:24;;;;;;;3.38;1.02;;;20.00;50.90;;;;;;5090167;28;20036;-68
2022/04/09 07:19:51;;;;;;;2.97;0.75;;;20.10;50.90;;;;;;5085973;28;20604;-69
2022/04/09 07:22:17;;;;;;;1.48;0.55;;;20.20;51.00;;;;;;5089467;28;20387;-69
2022/04/09 07:24:42;;;;;;;1.50;0.73;;;20.20;51.00;;;;;;5085731;28;20047;-70
2022/04/09 07:27:08;;;;;;;7.18;0.73;;;20.20;50.90;;;;;;5067249;28;20082;-70
2022/04/09 07:29:34;;;;;;;4.25;0.60;;;20.30;51.00;;;;;;5070038;28;20028;-69
2022/04/09 07:32:00;;;;;;;1.90;0.77;;;20.40;51.00;;;;;;5076863;28;20646;-70
2022/04/09 07:34:26;;;;;;;6.97;0.70;;;20.40;51.00;;;;;;5086370;28;20036;-69
2022/04/09 07:36:52;;;;;;;4.70;0.82;;;20.50;50.90;;;;;;5075025;28;20032;-70
2022/04/09 07:39:17;;;;;;;3.88;0.70;;;20.60;50.90;;;;;;5074281;28;20475;-69
2022/04/09 07:41:43;;;;;;;3.08;0.70;;;20.60;50.90;;;;;;5070879;28;20036;-69
2022/04/09 07:44:09;;;;;;;3.28;0.80;;;20.60;50.70;;;;;;5086364;28;20066;-70
2022/04/09 07:46:35;;;;;;;3.22;0.70;;;20.70;50.70;;;;;;5078888;28;20024;-70
2022/04/09 07:49:00;;;;;;;2.22;0.90;;;20.70;50.60;;;;;;5051800;28;20479;-68
2022/04/09 07:51:26;;;;;;;4.13;0.80;;;20.70;50.50;;;;;;5074747;28;20378;-69
2022/04/09 07:53:52;;;;;;;1.63;0.50;;;20.70;50.40;;;;;;5068797;28;20047;-72
2022/04/09 07:56:18;;;;;;;4.32;0.88;;;20.70;50.40;;;;;;5072202;28;20041;-70
2022/04/09 07:58:43;;;;;;;6.00;0.90;;;20.70;50.10;;;;;;5069937;28;20479;-70
2022/04/09 08:01:09;;;;;;;3.55;0.82;;;20.70;50.00;;;;;;5069685;28;20028;-71
2022/04/09 08:03:35;;;;;;;3.28;0.75;;;20.70;49.80;;;;;;5083847;28;20032;-73
2022/04/09 08:06:01;;;;;;;3.33;0.50;;;20.70;49.80;;;;;;5071137;28;20454;-75
2022/04/09 08:08:27;;;;;;;2.42;0.68;;;20.70;49.60;;;;;;5054849;28;20039;-69
2022/04/09 08:10:52;;;;;;;3.35;0.70;;;20.70;49.50;;;;;;5072215;28;20074;-69
2022/04/09 08:13:18;;;;;;;2.20;0.82;;;20.70;49.50;;;;;;5072025;28;20044;-68
2022/04/09 08:15:44;;;;;;;7.45;1.00;;;20.80;49.40;;;;;;5072535;28;20040;-69
2022/04/09 08:18:11;;;;;;;4.78;0.77;;;20.80;49.40;;;;;;5086626;28;20544;-69
2022/04/09 08:20:37;;;;;;;5.22;0.75;;;20.80;49.30;;;;;;5058430;28;20033;-69
2022/04/09 08:23:04;;;;;;;2.88;0.70;;;20.80;49.30;;;;;;5079472;28;20110;-69
2022/04/09 08:25:29;;;;;;;2.42;0.90;;;20.90;49.30;;;;;;5081052;28;20544;-69
2022/04/09 08:27:55;;;;;;;5.88;1.00;;;20.90;49.20;;;;;;5083166;28;20044;-69
2022/04/09 08:30:22;;;;;;;3.60;0.70;;;20.90;49.10;;;;;;5076050;28;20119;-69
2022/04/09 08:32:52;;;;;;;2.35;0.77;;;21.00;49.10;;;;;;5090206;28;20046;-69
2022/04/09 08:35:18;;;;;;;2.58;0.80;;;21.00;48.90;;;;;;5084718;28;20048;-68
2022/04/09 08:37:55;;;;;;;3.97;0.95;;;21.10;48.90;;;;;;5070318;28;20066;-67
2022/04/09 08:40:22;;;;;;;2.15;0.88;;;21.10;48.70;;;;;;5079618;28;20035;-68
2022/04/09 08:42:49;;;;;;;2.92;0.70;;;21.10;48.60;;;;;;5071054;28;20044;-68
2022/04/09 08:45:15;;;;;;;3.33;0.77;;;21.10;48.40;;;;;;5076245;28;20036;-68
2022/04/09 08:47:43;;;;;;;3.30;0.90;;;21.10;48.30;;;;;;5070195;28;20044;-68
2022/04/09 08:50:14;;;;;;;3.28;0.65;;;21.10;48.30;;;;;;5078218;28;20174;-69
2022/04/09 08:52:42;;;;;;;4.00;0.98;;;21.10;48.30;;;;;;5089242;28;20531;-69
2022/04/09 08:55:09;;;;;;;3.72;1.02;;;21.10;48.30;;;;;;5082231;28;20040;-69
2022/04/09 08:57:35;;;;;;;5.38;0.73;;;21.20;48.30;;;;;;5069974;28;20032;-69
2022/04/09 09:00:13;;;;;;;3.00;0.70;;;21.20;48.20;;;;;;5075561;28;20529;-69
2022/04/09 09:02:53;;;;;;;2.72;0.80;;;21.20;47.90;;;;;;5074091;28;20119;-69
2022/04/09 09:05:33;;;;;;;3.72;0.90;;;21.20;47.80;;;;;;5079361;28;20032;-69
2022/04/09 09:08:00;;;;;;;5.50;0.95;;;21.20;47.70;;;;;;5084688;28;20032;-68
2022/04/09 09:10:26;;;;;;;3.30;0.73;;;21.20;47.80;;;;;;5081330;28;20051;-68
2022/04/09 09:13:09;;;;;;;4.30;0.93;;;21.20;47.80;;;;;;5081191;28;20039;-66
2022/04/09 09:15:50;;;;;;;3.72;0.80;;;21.30;47.70;;;;;;5079311;28;20073;-67
2022/04/09 09:18:21;;;;;;;3.70;0.80;;;21.30;47.40;;;;;;5089296;28;20032;-69
2022/04/09 09:20:54;;;;;;;3.03;0.80;;;21.30;47.30;;;;;;5075605;28;20037;-68
2022/04/09 09:23:21;;;;;;;4.95;1.08;;;21.30;47.20;;;;;;5066732;28;20658;-67
2022/04/09 09:25:51;;;;;;;3.90;1.00;;;21.30;47.40;;;;;;5061558;28;20060;-68
2022/04/09 09:28:30;;;;;;;4.40;0.95;;;21.30;47.50;;;;;;5065817;28;20045;-67
2022/04/09 09:30:57;;;;;;;2.72;0.90;;;21.30;47.70;;;;;;5060673;28;20033;-68
2022/04/09 09:33:23;;;;;;;6.15;0.80;;;21.20;47.70;;;;;;5065772;28;20033;-66
2022/04/09 09:35:54;;;;;;;4.47;0.98;;;21.20;47.80;;;;;;5063315;28;20035;-67
2022/04/09 09:38:22;;;;;;;3.88;1.05;;;21.20;47.90;;;;;;5062063;28;20033;-68
2022/04/09 09:40:48;;;;;;;2.53;0.68;;;21.20;48.00;;;;;;5048619;28;20055;-68
2022/04/09 09:43:19;;;;;;;4.40;1.00;;;21.20;47.90;;;;;;5061991;28;20075;-68
2022/04/09 09:45:46;;;;;;;4.53;0.77;;;21.20;48.00;;;;;;5020503;28;20136;-69
2022/04/09 09:48:23;;;;;;;5.03;1.00;;;21.10;48.00;;;;;;5066775;28;20124;-68
2022/04/09 09:50:50;;;;;;;5.20;0.90;;;21.10;48.10;;;;;;5067629;28;20577;-68
2022/04/09 09:53:26;;;;;;;3.70;1.08;;;21.10;48.20;;;;;;5069949;28;20107;-70
2022/04/09 09:55:52;;;;;;;4.60;1.25;;;21.10;48.30;;;;;;5061010;28;20095;-70
2022/04/09 09:58:20;;;;;;;3.92;0.98;;;21.00;48.20;;;;;;5056345;28;20095;-69
2022/04/09 10:00:47;;;;;;;4.43;1.10;;;21.10;48.20;;;;;;5057552;28;20063;-69
2022/04/09 10:03:14;;;;;;;4.10;1.00;;;21.10;48.20;;;;;;5053128;28;20534;-66
2022/04/09 10:05:41;;;;;;;2.72;0.82;;;21.10;48.30;;;;;;5056343;28;20040;-67
2022/04/09 10:08:08;;;;;;;2.63;0.85;;;21.20;48.30;;;;;;5054693;28;20518;-67
2022/04/09 10:10:38;;;;;;;2.60;0.70;;;21.20;48.30;;;;;;5068518;28;20028;-65
2022/04/09 10:13:04;;;;;;;8.38;0.93;;;21.20;48.30;;;;;;5053178;28;20032;-67
2022/04/09 10:15:31;;;;;;;2.67;0.73;;;21.20;48.40;;;;;;5064642;28;20039;-68
2022/04/09 10:18:01;;;;;;;2.90;0.77;;;21.20;48.50;;;;;;5064846;28;20040;-66
2022/04/09 10:20:29;;;;;;;2.25;0.80;;;21.20;48.50;;;;;;5054783;28;20033;-67
2022/04/09 10:22:58;;;;;;;3.05;0.60;;;21.10;48.50;;;;;;5059963;28;20055;-67
2022/04/09 10:25:27;;;;;;;3.65;0.70;;;21.10;48.50;;;;;;5082628;28;20067;-66
2022/04/09 10:27:59;;;;;;;5.57;1.02;;;21.10;48.40;;;;;;5091016;28;20044;-68
2022/04/09 10:30:26;;;;;;;4.38;0.90;;;21.10;48.30;;;;;;5092670;28;20097;-68
2022/04/09 10:32:57;;;;;;;1.52;0.50;;;21.10;48.20;;;;;;5091699;28;20040;-68
2022/04/09 10:35:37;;;;;;;2.17;0.55;;;21.10;48.10;;;;;;5091869;28;20036;-67
2022/04/09 10:38:09;;;;;;;2.97;0.88;;;21.10;48.00;;;;;;5088958;28;20494;-68
2022/04/09 10:40:45;;;;;;;3.58;0.80;;;21.10;47.90;;;;;;5090716;28;20045;-66
2022/04/09 10:43:33;;;;;;;1.80;0.70;;;21.10;47.90;;;;;;5084638;28;20032;-68
2022/04/09 10:46:01;;;;;;;4.43;0.82;;;21.10;48.00;;;;;;5068028;28;20044;-68
2022/04/09 10:48:31;;;;;;;4.50;0.63;;;21.10;47.90;;;;;;5077988;28;20263;-67
2022/04/09 10:51:30;;;;;;;1.60;0.70;;;21.10;47.80;;;;;;5090717;28;20064;-69
2022/04/09 10:53:59;;;;;;;3.72;0.90;;;21.10;47.40;;;;;;5088141;28;20028;-66
2022/04/09 10:56:31;;;;;;;6.07;1.10;;;21.10;48.00;;;;;;5085885;28;20039;-71
2022/04/09 10:59:27;;;;;;;3.28;0.90;;;21.10;47.20;;;;;;5088433;28;20059;-67
2022/04/09 11:01:53;;;;;;;1.88;0.52;;;21.10;47.00;;;;;;5091665;28;20040;-68
2022/04/09 11:07:01;;;;;;;2.75;1.15;;;21.10;46.70;;;;;;5091213;28;20043;-68
2022/04/09 11:09:56;;;;;;;3.70;0.80;;;21.10;46.70;;;;;;5062372;28;20390;-73
2022/04/09 11:12:24;;;;;;;2.17;0.70;;;21.10;46.60;;;;;;5061691;28;20070;-66
2022/04/09 11:15:00;;;;;;;3.60;0.77;;;21.10;46.70;;;;;;5069921;28;20036;-66
2022/04/09 11:17:39;;;;;;;2.40;0.65;;;21.10;46.90;;;;;;5049447;28;20054;-67
2022/04/09 11:20:10;;;;;;;2.80;0.73;;;21.20;47.10;;;;;;5085914;28;20028;-68
2022/04/09 11:22:40;;;;;;;5.00;0.77;;;21.20;47.20;;;;;;5081268;28;20036;-69
2022/04/09 11:25:16;;;;;;;5.85;0.95;;;21.20;47.20;;;;;;5075855;28;20044;-68
2022/04/09 11:27:42;;;;;;;1.75;0.80;;;21.20;47.20;;;;;;5072176;28;20040;-67
2022/04/09 11:30:09;;;;;;;4.80;0.77;;;21.20;47.30;;;;;;5072380;28;20044;-67
2022/04/09 11:32:38;;;;;;;3.40;0.80;;;21.10;47.30;;;;;;5087591;28;20059;-67
2022/04/09 11:35:10;;;;;;;2.78;0.88;;;21.10;47.40;;;;;;5087266;28;20085;-66
2022/04/09 11:37:42;;;;;;;2.58;1.00;;;21.10;47.30;;;;;;5075155;28;20051;-66
2022/04/09 11:40:10;;;;;;;6.78;1.08;;;21.10;47.30;;;;;;5076251;28;20045;-67
2022/04/09 11:42:55;;;;;;;2.42;0.80;;;21.10;47.30;;;;;;5089075;28;20054;-72
2022/04/09 11:45:23;;;;;;;3.42;1.00;;;21.10;47.10;;;;;;5090895;28;20070;-66
2022/04/09 11:47:54;;;;;;;2.50;1.00;;;21.10;47.30;;;;;;5079820;28;20028;-66
2022/04/09 11:50:20;;;;;;;5.47;0.90;;;21.10;47.30;;;;;;5084899;28;20056;-66
2022/04/09 11:52:46;;;;;;;3.38;0.95;;;21.10;47.20;;;;;;5087965;28;20031;-66
2022/04/09 11:55:16;;;;;;;3.40;0.90;;;21.10;47.30;;;;;;5089109;28;20028;-67
2022/04/09 11:57:54;;;;;;;5.47;1.08;;;21.10;47.30;;;;;;5090411;28;20117;-67
2022/04/09 12:00:27;;;;;;;9.13;1.25;;;21.10;47.40;;;;;;5089878;28;20097;-66
2022/04/09 12:02:53;;;;;;;3.03;0.77;;;21.10;47.30;;;;;;5074439;28;20110;-67
2022/04/09 12:05:20;;;;;;;4.30;1.02;;;21.20;47.10;;;;;;5079939;28;20028;-67
2022/04/09 12:07:47;;;;;;;5.38;1.40;;;21.30;47.00;;;;;;5060624;28;20417;-69
2022/04/09 12:10:24;;;;;;;8.65;1.13;;;21.30;47.20;;;;;;5076999;28;20048;-68
2022/04/09 12:13:01;;;;;;;3.72;0.95;;;21.30;46.90;;;;;;5075903;28;20482;-67
2022/04/09 12:15:34;;;;;;;7.43;0.80;;;21.30;47.00;;;;;;5076520;28;20517;-67
2022/04/09 12:18:06;;;;;;;3.83;1.20;;;21.30;47.00;;;;;;5079725;28;20650;-67
2022/04/09 12:20:36;;;;;;;6.63;0.90;;;21.30;46.90;;;;;;5088761;28;20386;-67
2022/04/09 12:23:04;;;;;;;8.85;1.17;;;21.30;46.90;;;;;;5086589;28;20038;-67
2022/04/09 12:25:42;;;;;;;3.47;0.82;;;21.30;47.80;;;;;;5090627;28;20108;-68
2022/04/09 12:28:24;;;;;;;6.60;0.98;;;21.20;46.90;;;;;;5080145;28;20475;-67
2022/04/09 12:30:53;;;;;;;6.95;0.98;;;21.20;47.00;;;;;;5088692;28;20498;-68
2022/04/09 12:33:20;;;;;;;4.97;0.98;;;21.30;46.90;;;;;;5088664;28;20067;-68
2022/04/09 12:35:46;;;;;;;5.18;0.98;;;21.80;46.20;;;;;;5090351;28;20501;-67
2022/04/09 12:38:34;;;;;;;4.00;1.00;;;22.60;45.20;;;;;;5080921;28;20040;-67
2022/04/09 12:41:05;;;;;;;3.70;1.08;;;23.40;43.90;;;;;;5097414;28;20036;-68
2022/04/09 12:43:36;;;;;;;4.30;0.98;;;23.70;42.80;;;;;;5088534;28;20024;-68
2022/04/09 12:46:09;;;;;;;4.28;1.10;;;23.90;42.50;;;;;;5092937;28;20098;-69
2022/04/09 12:48:46;;;;;;;6.75;1.05;;;24.20;41.90;;;;;;5083018;28;20379;-68
2022/04/09 12:51:14;;;;;;;3.17;0.93;;;24.60;41.10;;;;;;5081528;28;20670;-69
2022/04/09 12:53:42;;;;;;;4.72;1.10;;;24.60;40.90;;;;;;5089126;28;20054;-66